createdAt,value
2023-03-01T00:04:53.234Z,33.05
2023-03-01T00:09:54.910Z,35.33
2023-03-01T00:14:56.563Z,32.05
2023-03-01T00:19:59.678Z,28.50
2023-03-01T00:25:01.390Z,36.03
2023-03-01T00:30:03.542Z,31.50
2023-03-01T00:35:07.177Z,35.55
2023-03-01T00:40:10.112Z,27.37
2023-03-01T00:45:12.008Z,29.90
2023-03-01T00:50:15.572Z,29.55
2023-03-01T00:55:17.346Z,30.57
2023-03-01T01:00:20.199Z,35.95
2023-03-01T01:05:23.330Z,30.17
2023-03-01T01:10:25.132Z,31.92
2023-03-01T01:15:27.062Z,34.58
2023-03-01T01:20:30.668Z,33.00
2023-03-01T01:25:35.532Z,29.07
2023-03-01T01:30:37.356Z,31.60
2023-03-01T01:35:40.582Z,34.67
2023-03-01T01:40:45.646Z,35.95
2023-03-01T01:45:47.673Z,30.70
2023-03-01T01:50:56.310Z,32.63
2023-03-01T01:56:01.950Z,30.58
2023-03-01T02:01:04.931Z,35.67
2023-03-01T02:06:13.691Z,35.53
2023-03-01T02:11:15.818Z,33.72
2023-03-01T02:16:18.262Z,32.72
2023-03-01T02:21:36.846Z,33.25
2023-03-01T02:26:43.622Z,35.08
2023-03-01T02:31:46.878Z,32.97
2023-03-01T02:36:51.992Z,32.05
2023-03-01T02:41:55.631Z,34.35
2023-03-01T02:47:03.450Z,35.10
2023-03-01T02:52:39.635Z,35.60
2023-03-01T02:57:44.723Z,35.63
2023-03-01T03:02:48.765Z,37.80
2023-03-01T03:07:51.065Z,33.75
2023-03-01T03:12:55.244Z,37.65
2023-03-01T03:17:59.761Z,33.08
2023-03-01T03:23:02.113Z,36.97
2023-03-01T03:28:04.475Z,35.28
2023-03-01T03:33:08.440Z,36.75
2023-03-01T03:38:12.732Z,34.47
2023-03-01T03:43:17.694Z,37.42
2023-03-01T03:48:21.564Z,33.90
2023-03-01T03:53:25.622Z,37.88
2023-03-01T03:58:27.650Z,37.30
2023-03-01T04:03:31.943Z,38.20
2023-03-01T04:08:33.685Z,37.40
2023-03-01T04:13:35.332Z,36.30
2023-03-01T04:18:38.508Z,35.38
2023-03-01T04:23:40.609Z,38.60
2023-03-01T04:28:43.764Z,39.25
2023-03-01T04:33:49.093Z,43.80
2023-03-01T04:38:51.183Z,36.53
2023-03-01T04:43:52.981Z,41.80
2023-03-01T04:48:56.167Z,49.42
2023-03-01T04:53:57.930Z,38.85
2023-03-01T04:58:59.649Z,36.90
2023-03-01T05:04:02.804Z,40.20
2023-03-01T05:09:04.522Z,38.35
2023-03-01T05:14:08.037Z,36.58
2023-03-01T05:19:11.118Z,42.53
2023-03-01T05:24:12.789Z,40.85
2023-03-01T05:29:14.453Z,42.92
2023-03-01T05:34:17.613Z,44.30
2023-03-01T05:39:19.835Z,40.00
2023-03-01T05:44:22.131Z,42.78
2023-03-01T05:49:25.454Z,47.10
2023-03-01T05:54:27.374Z,41.83
2023-03-01T05:59:29.505Z,42.47
2023-03-01T06:04:32.552Z,44.47
2023-03-01T06:09:34.300Z,43.85
2023-03-01T06:14:35.945Z,37.45
2023-03-01T06:19:39.147Z,45.00
2023-03-01T06:24:40.832Z,40.15
2023-03-01T06:29:42.786Z,48.35
2023-03-01T06:34:46.000Z,40.38
2023-03-01T06:39:47.699Z,48.65
2023-03-01T06:44:49.372Z,43.65
2023-03-01T06:49:52.497Z,41.35
2023-03-01T06:54:54.146Z,43.75
2023-03-01T06:59:55.973Z,38.92
2023-03-01T07:04:59.026Z,42.47
2023-03-01T07:10:00.733Z,41.55
2023-03-01T07:15:02.461Z,47.05
2023-03-01T07:20:06.362Z,37.03
2023-03-01T07:25:08.875Z,41.03
2023-03-01T07:30:11.634Z,41.83
2023-03-01T07:35:14.826Z,42.45
2023-03-01T07:40:16.833Z,35.67
2023-03-01T07:45:18.574Z,40.92
2023-03-01T07:50:22.259Z,45.55
2023-03-01T07:55:23.966Z,43.67
2023-03-01T08:00:25.796Z,38.85
2023-03-01T08:05:29.389Z,43.03
2023-03-01T08:10:31.051Z,40.27
2023-03-01T08:15:32.813Z,40.63
2023-03-01T08:20:35.852Z,47.62
2023-03-01T08:25:37.771Z,35.55
2023-03-01T08:30:39.454Z,35.15
2023-03-01T08:35:42.518Z,39.53
2023-03-01T08:40:44.262Z,34.75
2023-03-01T08:45:46.118Z,38.50
2023-03-01T08:50:49.231Z,37.47
2023-03-01T08:55:50.949Z,43.47
2023-03-01T09:00:52.614Z,34.97
2023-03-01T09:06:01.278Z,40.50
2023-03-01T09:11:03.677Z,38.85
2023-03-01T09:16:07.867Z,39.80
2023-03-01T09:21:13.886Z,37.75
2023-03-01T09:26:17.906Z,37.10
2023-03-01T09:31:21.520Z,35.53
2023-03-01T09:36:25.735Z,34.75
2023-03-01T09:41:44.981Z,32.92
2023-03-01T09:46:47.462Z,40.78
2023-03-01T09:52:04.451Z,37.10
2023-03-01T09:57:15.593Z,33.17
2023-03-01T10:02:29.175Z,35.60
2023-03-01T10:07:43.716Z,34.95
2023-03-01T10:12:49.639Z,37.13
2023-03-01T10:17:57.018Z,33.55
2023-03-01T10:23:02.375Z,31.37
2023-03-01T10:28:11.566Z,35.55
2023-03-01T10:33:18.809Z,38.40
2023-03-01T10:38:22.296Z,37.92
2023-03-01T10:43:25.110Z,39.75
2023-03-01T10:48:28.049Z,39.70
2023-03-01T10:53:34.977Z,38.25
2023-03-01T10:58:38.876Z,34.40
2023-03-01T11:03:40.572Z,30.88
2023-03-01T11:08:45.344Z,34.00
2023-03-01T11:13:52.883Z,32.85
2023-03-01T11:18:59.411Z,35.20
2023-03-01T11:24:05.044Z,32.85
2023-03-01T11:29:13.650Z,34.15
2023-03-01T11:34:21.745Z,31.85
2023-03-01T11:39:32.064Z,32.75
2023-03-01T11:44:37.585Z,33.05
2023-03-01T11:50:01.667Z,36.20
2023-03-01T11:55:20.303Z,32.20
2023-03-01T12:00:37.479Z,31.23
2023-03-01T12:06:13.761Z,32.10
2023-03-01T12:11:28.831Z,24.85
2023-03-01T12:16:56.789Z,30.05
2023-03-01T12:22:29.754Z,25.50
2023-03-01T12:27:49.893Z,24.90
2023-03-01T12:33:05.133Z,24.83
2023-03-01T12:43:28.211Z,23.87
2023-03-01T12:48:40.353Z,26.05
2023-03-01T12:53:47.473Z,24.35
2023-03-01T12:59:00.435Z,23.92
2023-03-01T13:04:20.236Z,24.63
2023-03-01T13:09:28.875Z,24.45
2023-03-01T13:14:46.161Z,23.52
2023-03-01T13:19:57.866Z,24.10
2023-03-01T13:25:13.014Z,23.73
2023-03-01T13:30:42.694Z,29.08
2023-03-01T13:35:45.800Z,23.48
2023-03-01T13:41:00.764Z,24.63
2023-03-01T13:46:11.475Z,22.42
2023-03-01T13:51:13.360Z,21.45
2023-03-01T13:56:18.549Z,24.55
2023-03-01T14:01:28.640Z,24.23
2023-03-01T14:06:32.958Z,25.80
2023-03-01T14:12:00.800Z,24.50
2023-03-01T14:17:16.963Z,23.15
2023-03-01T14:22:23.468Z,30.23
2023-03-01T14:27:27.853Z,24.80
2023-03-01T14:32:32.834Z,24.83
2023-03-01T14:37:35.781Z,29.23
2023-03-01T14:42:37.936Z,22.17
2023-03-01T14:47:43.471Z,26.23
2023-03-01T14:52:49.229Z,22.20
2023-03-01T14:57:52.381Z,22.95
2023-03-01T15:02:57.118Z,24.33
2023-03-01T15:08:00.719Z,23.65
2023-03-01T15:13:12.647Z,22.13
2023-03-01T15:18:19.186Z,21.05
2023-03-01T15:23:24.613Z,23.92
2023-03-01T15:28:29.293Z,25.62
2023-03-01T15:33:36.412Z,27.20
2023-03-01T15:38:53.431Z,26.77
2023-03-01T15:43:55.898Z,24.85
2023-03-01T15:49:01.724Z,26.25
2023-03-01T15:54:07.110Z,22.62
2023-03-01T15:59:11.585Z,23.15
2023-03-01T16:04:16.593Z,26.05
2023-03-01T16:14:20.224Z,22.52
2023-03-01T16:19:23.410Z,30.90
2023-03-01T16:24:25.337Z,26.45
2023-03-01T16:29:27.039Z,20.85
2023-03-01T16:34:30.089Z,20.27
2023-03-01T16:39:31.825Z,25.27
2023-03-01T16:44:33.557Z,28.80
2023-03-01T16:49:39.870Z,27.98
2023-03-01T16:54:41.560Z,30.80
2023-03-01T16:59:43.298Z,24.60
2023-03-01T17:04:46.616Z,23.17
2023-03-01T17:09:48.682Z,27.37
2023-03-01T17:14:50.943Z,23.38
2023-03-01T17:19:54.031Z,31.23
2023-03-01T17:24:55.736Z,26.85
2023-03-01T17:29:57.541Z,27.90
2023-03-01T17:35:00.932Z,25.98
2023-03-01T17:40:03.310Z,30.98
2023-03-01T17:45:06.428Z,26.83
2023-03-01T17:50:11.103Z,25.88
2023-03-01T17:55:12.810Z,28.62
2023-03-01T18:00:17.227Z,24.25
2023-03-01T18:05:20.316Z,31.85
2023-03-01T18:10:22.109Z,26.62
2023-03-01T18:15:23.803Z,35.40
2023-03-01T18:20:27.884Z,24.08
2023-03-01T18:25:29.681Z,25.03
2023-03-01T18:30:43.582Z,31.62
2023-03-01T18:35:46.957Z,28.85
2023-03-01T18:40:49.074Z,32.15
2023-03-01T18:45:57.344Z,25.27
2023-03-01T18:51:17.153Z,29.45
2023-03-01T18:56:19.230Z,32.42
2023-03-01T19:01:23.257Z,32.63
2023-03-01T19:06:30.131Z,31.17
2023-03-01T19:23:10.768Z,27.58
2023-03-01T19:28:13.971Z,25.62
2023-03-01T19:33:15.725Z,33.22
2023-03-01T19:38:18.863Z,28.80
2023-03-01T19:43:49.877Z,30.42
2023-03-01T19:48:52.673Z,29.80
2023-03-01T19:53:55.938Z,26.87
2023-03-01T19:59:00.702Z,27.65
2023-03-01T20:04:03.701Z,28.45
2023-03-01T20:09:20.288Z,28.50
2023-03-01T20:14:24.251Z,32.92
2023-03-01T20:19:26.165Z,33.05
2023-03-01T20:24:29.279Z,28.50
2023-03-01T20:29:31.994Z,30.40
2023-03-01T20:34:33.736Z,29.50
2023-03-01T20:40:24.984Z,29.35
2023-03-01T20:45:39.526Z,31.65
2023-03-01T20:51:08.089Z,31.02
2023-03-01T20:56:39.230Z,31.95
2023-03-01T21:02:05.022Z,32.65
2023-03-01T21:30:24.148Z,32.27
2023-03-01T21:41:02.477Z,38.65
2023-03-01T21:51:34.575Z,33.80
2023-03-01T21:56:36.463Z,32.97
2023-03-01T22:01:38.278Z,34.13
2023-03-01T22:06:42.987Z,30.85
2023-03-01T22:16:48.464Z,34.20
2023-03-01T22:21:52.891Z,27.40
2023-03-01T22:26:55.197Z,30.52
2023-03-01T22:31:58.000Z,35.42
2023-03-01T22:37:01.173Z,29.80
2023-03-01T22:42:02.962Z,30.77
2023-03-01T22:47:04.797Z,31.02
2023-03-01T22:52:07.918Z,35.63
2023-03-01T22:57:09.700Z,31.40
2023-03-01T23:02:11.514Z,31.10
2023-03-01T23:07:14.761Z,39.17
2023-03-01T23:12:16.532Z,33.10
2023-03-01T23:17:18.307Z,34.28
2023-03-01T23:22:21.535Z,34.28
2023-03-01T23:27:23.255Z,29.67
2023-03-01T23:32:25.142Z,31.42
2023-03-01T23:37:30.931Z,31.27
2023-03-01T23:42:33.126Z,32.10
2023-03-01T23:47:35.025Z,35.47
2023-03-01T23:52:39.392Z,33.53
2023-03-01T23:57:41.230Z,30.92
